createdAt,value
2018-05-12T00:02:09.830Z,55.40
2018-05-12T00:04:36.127Z,55.40
2018-05-12T00:07:02.454Z,55.40
2018-05-12T00:09:28.811Z,55.50
2018-05-12T00:11:55.259Z,56.10
2018-05-12T00:14:22.305Z,55.50
2018-05-12T00:16:48.718Z,55.50
2018-05-12T00:19:15.186Z,55.50
2018-05-12T00:21:41.618Z,55.60
2018-05-12T00:24:08.050Z,55.50
2018-05-12T00:26:34.423Z,55.60
2018-05-12T00:29:01.299Z,55.20
2018-05-12T00:31:27.643Z,55.70
2018-05-12T00:33:54.673Z,55.70
2018-05-12T00:36:21.068Z,55.60
2018-05-12T00:38:47.419Z,55.70
2018-05-12T00:41:13.875Z,55.70
2018-05-12T00:43:40.340Z,55.70
2018-05-12T00:46:06.786Z,55.70
2018-05-12T00:48:33.109Z,55.70
2018-05-12T00:51:00.157Z,55.80
2018-05-12T00:53:27.229Z,55.80
2018-05-12T00:55:53.605Z,55.80
2018-05-12T00:58:20.815Z,56.30
2018-05-12T01:00:47.073Z,55.70
2018-05-12T01:03:13.347Z,55.80
2018-05-12T01:05:39.628Z,55.90
2018-05-12T01:08:06.105Z,55.90
2018-05-12T01:10:32.373Z,55.90
2018-05-12T01:13:03.599Z,55.90
2018-05-12T01:15:45.739Z,55.90
2018-05-12T01:18:14.827Z,56.00
2018-05-12T01:20:47.169Z,55.90
2018-05-12T01:23:19.457Z,56.00
2018-05-12T01:25:51.702Z,56.00
2018-05-12T01:28:21.288Z,56.10
2018-05-12T01:30:51.671Z,56.00
2018-05-12T01:33:21.148Z,56.20
2018-05-12T01:36:02.413Z,56.00
2018-05-12T01:38:36.169Z,56.10
2018-05-12T01:41:17.397Z,56.10
2018-05-12T01:43:53.267Z,56.10
2018-05-12T01:46:21.034Z,56.80
2018-05-12T01:48:48.210Z,56.20
2018-05-12T01:51:14.628Z,56.20
2018-05-12T01:53:40.986Z,56.20
2018-05-12T01:56:07.327Z,56.20
2018-05-12T01:58:33.750Z,56.20
2018-05-12T02:01:00.079Z,56.20
2018-05-12T02:03:26.417Z,56.30
2018-05-12T02:05:52.912Z,56.30
2018-05-12T02:08:19.276Z,56.30
2018-05-12T02:10:45.609Z,56.30
2018-05-12T02:13:11.916Z,56.30
2018-05-12T02:15:38.365Z,56.40
2018-05-12T02:18:05.015Z,56.40
2018-05-12T02:20:31.893Z,56.40
2018-05-12T02:22:58.289Z,56.40
2018-05-12T02:25:25.421Z,56.50
2018-05-12T02:27:53.309Z,56.50
2018-05-12T02:30:19.858Z,56.40
2018-05-12T02:32:46.191Z,56.40
2018-05-12T02:35:12.625Z,56.50
2018-05-12T02:37:39.065Z,56.50
2018-05-12T02:40:05.369Z,56.50
2018-05-12T02:42:31.743Z,56.50
2018-05-12T02:44:58.088Z,56.60
2018-05-12T02:47:25.136Z,56.60
2018-05-12T02:49:52.225Z,56.60
2018-05-12T02:52:19.298Z,56.60
2018-05-12T02:54:45.827Z,56.60
2018-05-12T02:57:12.959Z,56.70
2018-05-12T02:59:39.898Z,56.60
2018-05-12T03:02:07.215Z,56.70
2018-05-12T03:04:33.506Z,56.70
2018-05-12T03:06:59.979Z,56.70
2018-05-12T03:09:26.299Z,56.70
2018-05-12T03:11:54.881Z,56.70
2018-05-12T03:14:21.241Z,56.70
2018-05-12T03:16:47.581Z,56.70
2018-05-12T03:19:13.965Z,56.70
2018-05-12T03:21:41.001Z,57.10
2018-05-12T03:24:07.358Z,56.70
2018-05-12T03:26:33.716Z,56.70
2018-05-12T03:29:00.053Z,56.80
2018-05-12T03:31:26.506Z,56.80
2018-05-12T03:33:52.857Z,56.80
2018-05-12T03:36:19.436Z,56.90
2018-05-12T03:38:46.079Z,56.80
2018-05-12T03:41:13.293Z,57.50
2018-05-12T03:43:39.760Z,56.80
2018-05-12T03:46:06.201Z,56.90
2018-05-12T03:48:32.632Z,56.90
2018-05-12T03:50:59.023Z,56.90
2018-05-12T03:53:26.104Z,56.90
2018-05-12T03:55:53.371Z,57.00
2018-05-12T03:58:19.714Z,56.90
2018-05-12T04:00:46.023Z,57.00
2018-05-12T04:03:12.419Z,57.00
2018-05-12T04:05:42.327Z,57.00
2018-05-12T04:08:08.745Z,57.00
2018-05-12T04:10:35.151Z,57.00
2018-05-12T04:13:03.119Z,57.00
2018-05-12T04:15:29.465Z,57.00
2018-05-12T04:17:55.835Z,57.00
2018-05-12T04:20:22.208Z,57.00
2018-05-12T04:22:48.867Z,57.00
2018-05-12T04:25:15.191Z,57.10
2018-05-12T04:27:41.583Z,57.10
2018-05-12T04:30:07.996Z,57.10
2018-05-12T04:32:34.315Z,57.10
2018-05-12T04:35:00.657Z,57.70
2018-05-12T04:37:27.037Z,57.10
2018-05-12T04:39:54.076Z,57.20
2018-05-12T04:42:20.334Z,57.10
2018-05-12T04:44:46.696Z,57.10
2018-05-12T04:47:13.006Z,57.20
2018-05-12T04:49:39.335Z,57.20
2018-05-12T04:52:05.815Z,57.20
2018-05-12T04:54:32.143Z,57.20
2018-05-12T04:56:59.263Z,57.30
2018-05-12T04:59:25.621Z,57.20
2018-05-12T05:01:52.029Z,57.20
2018-05-12T05:04:19.780Z,57.10
2018-05-12T05:06:46.543Z,57.30
2018-05-12T05:09:13.390Z,57.80
2018-05-12T05:11:39.852Z,57.10
2018-05-12T05:14:07.212Z,57.30
2018-05-12T05:16:33.799Z,57.20
2018-05-12T05:19:00.118Z,57.30
2018-05-12T05:21:29.086Z,57.30
2018-05-12T05:23:56.198Z,57.30
2018-05-12T05:26:22.728Z,57.30
2018-05-12T05:28:49.285Z,57.30
2018-05-12T05:31:16.772Z,57.40
2018-05-12T05:33:43.243Z,57.30
2018-05-12T05:36:09.744Z,57.40
2018-05-12T05:38:36.239Z,57.40
2018-05-12T05:41:02.692Z,57.40
2018-05-12T05:43:29.854Z,57.40
2018-05-12T05:45:57.180Z,57.40
2018-05-12T05:48:24.937Z,57.50
2018-05-12T05:50:52.784Z,57.50
2018-05-12T05:53:20.946Z,57.40
2018-05-12T05:55:51.052Z,57.50
2018-05-12T05:58:20.160Z,57.40
2018-05-12T06:00:48.665Z,57.00
2018-05-12T06:03:16.938Z,57.50
2018-05-12T06:05:50.259Z,57.60
2018-05-12T06:08:17.751Z,57.60
2018-05-12T06:10:46.876Z,57.60
2018-05-12T06:13:17.180Z,57.60
2018-05-12T06:15:49.665Z,57.70
2018-05-12T06:18:18.671Z,57.60
2018-05-12T06:20:45.113Z,57.70
2018-05-12T06:23:11.512Z,57.70
2018-05-12T06:25:38.020Z,57.70
2018-05-12T06:28:04.431Z,57.80
2018-05-12T06:30:30.857Z,57.70
2018-05-12T06:32:57.180Z,57.80
2018-05-12T06:35:24.303Z,57.90
2018-05-12T06:37:50.696Z,57.80
2018-05-12T06:40:17.075Z,57.90
2018-05-12T06:42:43.483Z,57.90
2018-05-12T06:45:09.834Z,57.90
2018-05-12T06:47:36.286Z,57.90
2018-05-12T06:50:02.629Z,58.00
2018-05-12T06:52:29.713Z,58.00
2018-05-12T06:54:56.044Z,57.90
2018-05-12T06:57:23.159Z,58.00
2018-05-12T06:59:50.277Z,58.00
2018-05-12T07:02:16.676Z,58.00
2018-05-12T07:04:43.003Z,58.00
2018-05-12T07:07:09.388Z,58.00
2018-05-12T07:09:36.477Z,58.10
2018-05-12T07:12:03.613Z,58.10
2018-05-12T07:14:29.967Z,58.00
2018-05-12T07:16:56.373Z,58.10
2018-05-12T07:19:22.872Z,58.10
2018-05-12T07:21:49.883Z,58.10
2018-05-12T07:24:16.163Z,58.00
2018-05-12T07:26:42.504Z,58.10
2018-05-12T07:29:08.876Z,58.10
2018-05-12T07:31:35.312Z,58.10
2018-05-12T07:34:01.689Z,58.10
2018-05-12T07:36:28.067Z,58.10
2018-05-12T07:38:55.219Z,58.70
2018-05-12T07:41:22.310Z,58.20
2018-05-12T07:43:48.798Z,58.10
2018-05-12T07:46:16.696Z,58.10
2018-05-12T07:48:47.762Z,57.70
2018-05-12T07:51:18.786Z,58.10
2018-05-12T07:53:48.092Z,58.20
2018-05-12T07:56:20.280Z,58.20
2018-05-12T07:58:50.699Z,58.20
2018-05-12T08:01:22.911Z,58.20
2018-05-12T08:03:49.355Z,58.20
2018-05-12T08:06:17.889Z,58.20
2018-05-12T08:08:50.131Z,58.20
2018-05-12T08:11:16.437Z,58.20
2018-05-12T08:13:44.880Z,58.20
2018-05-12T08:16:14.971Z,58.30
2018-05-12T08:18:53.075Z,58.20
2018-05-12T08:21:22.366Z,58.20
2018-05-12T08:23:51.637Z,58.30
2018-05-12T08:26:19.068Z,58.20
2018-05-12T08:29:01.130Z,58.30
2018-05-12T08:31:34.011Z,58.30
2018-05-12T08:34:06.549Z,58.30
2018-05-12T08:36:45.051Z,58.30
2018-05-12T08:39:17.425Z,58.30
2018-05-12T08:41:50.569Z,58.20
2018-05-12T08:44:22.873Z,58.20
2018-05-12T08:47:03.473Z,58.30
2018-05-12T08:49:35.670Z,58.30
2018-05-12T08:52:01.998Z,58.30
2018-05-12T08:54:29.156Z,58.90
2018-05-12T08:56:56.383Z,58.30
2018-05-12T08:59:23.822Z,58.20
2018-05-12T09:01:50.195Z,58.30
2018-05-12T09:04:24.529Z,58.30
2018-05-12T09:06:51.957Z,58.30
2018-05-12T09:09:19.039Z,58.30
2018-05-12T09:11:45.432Z,58.30
2018-05-12T09:14:12.259Z,58.30
2018-05-12T09:16:38.791Z,58.30
2018-05-12T09:19:05.173Z,58.30
2018-05-12T09:21:32.250Z,58.40
2018-05-12T09:23:59.030Z,58.30
2018-05-12T09:26:25.392Z,58.30
2018-05-12T09:28:51.739Z,58.30
2018-05-12T09:31:18.046Z,58.30
2018-05-12T09:33:44.861Z,58.40
2018-05-12T09:36:11.365Z,58.30
2018-05-12T09:38:39.158Z,58.70
2018-05-12T09:41:05.497Z,58.20
2018-05-12T09:43:32.037Z,58.20
2018-05-12T09:45:59.084Z,58.20
2018-05-12T09:48:26.807Z,58.20
2018-05-12T09:50:53.180Z,58.20
2018-05-12T09:53:20.438Z,58.00
2018-05-12T09:55:46.995Z,57.90
2018-05-12T09:58:13.355Z,58.10
2018-05-12T10:00:40.490Z,58.10
2018-05-12T10:03:06.848Z,58.10
2018-05-12T10:05:33.820Z,58.10
2018-05-12T10:08:00.342Z,58.10
2018-05-12T10:10:27.502Z,58.10
2018-05-12T10:12:54.650Z,58.10
2018-05-12T10:15:21.771Z,58.00
2018-05-12T10:17:48.084Z,58.00
2018-05-12T10:22:45.356Z,57.90
2018-05-12T10:25:13.044Z,58.00
2018-05-12T10:27:39.506Z,57.90
2018-05-12T10:30:05.912Z,58.00
2018-05-12T10:32:32.236Z,57.90
2018-05-12T10:34:58.572Z,57.90
2018-05-12T10:37:24.924Z,57.90
2018-05-12T10:39:51.373Z,57.90
2018-05-12T10:42:18.621Z,57.80
2018-05-12T10:44:46.043Z,57.80
2018-05-12T10:47:13.107Z,57.80
2018-05-12T10:49:40.429Z,57.80
2018-05-12T10:52:06.783Z,57.70
2018-05-12T10:54:33.128Z,57.70
2018-05-12T10:57:00.547Z,57.80
2018-05-12T10:59:26.964Z,57.70
2018-05-12T11:01:54.199Z,57.70
2018-05-12T11:04:20.561Z,57.60
2018-05-12T11:06:46.928Z,57.60
2018-05-12T11:09:14.151Z,57.60
2018-05-12T11:11:40.487Z,57.60
2018-05-12T11:14:06.916Z,57.50
2018-05-12T11:16:34.574Z,57.50
2018-05-12T11:19:01.015Z,57.50
2018-05-12T11:21:27.496Z,57.40
2018-05-12T11:23:53.782Z,57.40
2018-05-12T11:26:20.901Z,57.30
2018-05-12T11:28:48.057Z,57.30
2018-05-12T11:31:15.938Z,57.20
2018-05-12T11:33:42.698Z,57.10
2018-05-12T11:36:09.139Z,57.10
2018-05-12T11:38:35.511Z,57.00
2018-05-12T11:41:02.720Z,57.00
2018-05-12T11:43:29.116Z,57.00
2018-05-12T11:45:56.015Z,57.00
2018-05-12T11:48:22.362Z,56.90
2018-05-12T11:50:48.725Z,56.90
2018-05-12T11:53:15.834Z,56.60
2018-05-12T11:55:42.222Z,56.50
2018-05-12T11:58:08.686Z,56.30
2018-05-12T12:00:35.010Z,56.10
2018-05-12T12:03:01.383Z,55.90
2018-05-12T12:05:27.736Z,55.70
2018-05-12T12:07:54.147Z,55.50
2018-05-12T12:10:20.516Z,55.40
2018-05-12T12:12:47.597Z,55.10
2018-05-12T12:15:13.951Z,55.00
2018-05-12T12:17:40.325Z,54.90
2018-05-12T12:20:07.545Z,54.60
2018-05-12T12:22:33.913Z,54.60
2018-05-12T12:25:00.293Z,54.50
2018-05-12T12:27:26.819Z,54.30
2018-05-12T12:29:53.199Z,54.10
2018-05-12T12:32:19.623Z,54.00
2018-05-12T12:34:45.948Z,53.90
2018-05-12T12:37:12.245Z,53.70
2018-05-12T12:39:38.658Z,53.60
2018-05-12T12:42:05.713Z,53.40
2018-05-12T12:44:32.087Z,53.30
2018-05-12T12:46:58.455Z,53.30
2018-05-12T12:49:25.611Z,53.00
2018-05-12T12:51:52.685Z,52.80
2018-05-12T12:54:19.091Z,52.80
2018-05-12T12:56:45.447Z,52.60
2018-05-12T12:59:12.499Z,52.50
2018-05-12T13:01:39.571Z,52.40
2018-05-12T13:04:06.663Z,52.30
2018-05-12T13:06:33.028Z,52.20
2018-05-12T13:09:00.190Z,52.10
2018-05-12T13:11:26.563Z,52.00
2018-05-12T13:13:52.991Z,51.90
2018-05-12T13:16:19.376Z,51.90
2018-05-12T13:18:46.506Z,51.80
2018-05-12T13:21:12.806Z,51.80
2018-05-12T13:23:39.192Z,51.60
2018-05-12T13:26:06.305Z,51.40
2018-05-12T13:28:32.618Z,51.30
2018-05-12T13:30:58.954Z,51.20
2018-05-12T13:33:25.418Z,51.20
2018-05-12T13:35:51.798Z,51.10
2018-05-12T13:38:18.163Z,51.00
2018-05-12T13:40:44.553Z,50.90
2018-05-12T13:43:10.869Z,50.80
2018-05-12T13:45:37.296Z,50.70
2018-05-12T13:48:04.402Z,50.80
2018-05-12T13:50:31.599Z,50.80
2018-05-12T13:52:58.029Z,50.70
2018-05-12T13:55:24.395Z,50.70
2018-05-12T13:57:50.857Z,50.80
2018-05-12T14:00:17.227Z,50.70
2018-05-12T14:02:44.360Z,51.40
2018-05-12T14:05:10.789Z,50.70
2018-05-12T14:07:37.105Z,50.80
2018-05-12T14:10:03.560Z,50.80
2018-05-12T14:12:29.975Z,50.80
2018-05-12T14:14:56.305Z,50.80
2018-05-12T14:17:22.695Z,50.70
2018-05-12T14:19:49.083Z,50.80
2018-05-12T14:22:15.443Z,50.90
2018-05-12T14:24:42.425Z,50.90
2018-05-12T14:27:08.753Z,51.00
2018-05-12T14:29:35.902Z,51.00
2018-05-12T14:32:03.008Z,51.00
2018-05-12T14:34:29.399Z,51.60
2018-05-12T14:36:55.720Z,51.00
2018-05-12T14:39:23.200Z,51.10
2018-05-12T14:41:49.502Z,51.10
2018-05-12T14:44:15.886Z,51.10
2018-05-12T14:46:42.965Z,51.20
2018-05-12T14:49:10.081Z,51.20
2018-05-12T14:51:37.282Z,51.20
2018-05-12T14:54:03.650Z,51.10
2018-05-12T14:56:30.692Z,50.80
2018-05-12T14:58:57.093Z,51.20
2018-05-12T15:01:23.535Z,51.20
2018-05-12T15:03:49.873Z,51.30
2018-05-12T15:06:17.003Z,51.30
2018-05-12T15:08:43.426Z,51.90
2018-05-12T15:11:09.803Z,51.40
2018-05-12T15:13:36.188Z,51.50
2018-05-12T15:16:02.564Z,51.50
2018-05-12T15:18:28.876Z,51.50
2018-05-12T15:20:55.262Z,51.50
2018-05-12T15:23:22.340Z,51.60
2018-05-12T15:25:48.749Z,51.60
2018-05-12T15:28:15.890Z,51.70
2018-05-12T15:30:43.001Z,51.80
2018-05-12T15:33:10.292Z,51.70
2018-05-12T15:35:39.120Z,51.80
2018-05-12T15:38:06.362Z,52.10
2018-05-12T15:40:32.926Z,51.80
2018-05-12T15:42:59.453Z,51.80
2018-05-12T15:45:25.938Z,51.90
2018-05-12T15:47:52.274Z,51.90
2018-05-12T15:50:18.729Z,52.50
2018-05-12T15:52:45.093Z,51.90
2018-05-12T15:55:11.431Z,52.00
2018-05-12T15:57:37.904Z,51.90
2018-05-12T16:00:04.344Z,52.00
2018-05-12T16:02:30.709Z,52.00
2018-05-12T16:04:57.121Z,52.00
2018-05-12T16:07:23.581Z,52.00
2018-05-12T16:09:50.073Z,52.00
2018-05-12T16:12:17.765Z,52.70
2018-05-12T16:14:44.956Z,52.10
2018-05-12T16:17:11.311Z,52.10
2018-05-12T16:19:37.706Z,52.10
2018-05-12T16:22:04.096Z,52.10
2018-05-12T16:24:30.423Z,52.20
2018-05-12T16:26:57.533Z,52.50
2018-05-12T16:29:23.939Z,52.20
2018-05-12T16:31:51.023Z,52.30
2018-05-12T16:34:17.394Z,52.20
2018-05-12T16:36:43.864Z,52.90
2018-05-12T16:39:10.229Z,52.30
2018-05-12T16:41:36.592Z,52.30
2018-05-12T16:44:03.731Z,52.40
2018-05-12T16:46:30.104Z,52.40
2018-05-12T16:48:56.425Z,52.40
2018-05-12T16:51:22.789Z,52.40
2018-05-12T16:53:49.181Z,52.40
2018-05-12T16:56:15.591Z,52.40
2018-05-12T16:58:41.950Z,52.40
2018-05-12T17:01:09.120Z,52.50
2018-05-12T17:03:35.464Z,52.50
2018-05-12T17:06:01.856Z,52.50
2018-05-12T17:08:28.986Z,52.60
2018-05-12T17:10:55.330Z,52.50
2018-05-12T17:13:21.740Z,52.60
2018-05-12T17:15:48.153Z,52.60
2018-05-12T17:18:14.559Z,52.60
2018-05-12T17:20:40.965Z,52.60
2018-05-12T17:23:08.084Z,52.70
2018-05-12T17:25:34.422Z,52.70
2018-05-12T17:28:01.481Z,52.80
2018-05-12T17:30:27.916Z,52.70
2018-05-12T17:32:54.276Z,52.80
2018-05-12T17:35:20.629Z,52.70
2018-05-12T17:37:46.999Z,52.80
2018-05-12T17:40:13.407Z,52.80
2018-05-12T17:42:39.818Z,53.40
2018-05-12T17:45:06.250Z,52.80
2018-05-12T17:47:32.646Z,52.90
2018-05-12T17:49:58.987Z,52.90
2018-05-12T17:52:25.476Z,52.90
2018-05-12T17:54:52.560Z,53.00
2018-05-12T17:57:18.919Z,53.50
2018-05-12T17:59:46.013Z,53.60
2018-05-12T18:02:13.155Z,53.60
2018-05-12T18:04:39.547Z,53.00
2018-05-12T18:07:05.876Z,53.00
2018-05-12T18:09:32.186Z,53.00
2018-05-12T18:11:59.815Z,53.00
2018-05-12T18:14:26.552Z,53.10
2018-05-12T18:16:53.043Z,53.00
2018-05-12T18:19:19.459Z,53.10
2018-05-12T18:21:45.821Z,53.10
2018-05-12T18:24:14.009Z,53.20
2018-05-12T18:26:40.321Z,53.10
2018-05-12T18:29:06.656Z,53.10
2018-05-12T18:31:33.113Z,53.10
2018-05-12T18:33:59.521Z,53.20
2018-05-12T18:36:28.217Z,53.20
2018-05-12T18:38:56.299Z,53.30
2018-05-12T18:41:22.677Z,53.20
2018-05-12T18:43:49.823Z,53.30
2018-05-12T18:46:16.197Z,53.30
2018-05-12T18:48:42.641Z,53.30
2018-05-12T18:51:09.065Z,53.30
2018-05-12T18:53:35.404Z,53.30
2018-05-12T18:56:01.846Z,53.30
2018-05-12T18:58:28.336Z,53.30
2018-05-12T19:00:55.710Z,53.40
2018-05-12T19:03:22.891Z,53.50
2018-05-12T19:05:49.437Z,53.40
2018-05-12T19:08:16.158Z,53.40
2018-05-12T19:10:43.288Z,53.50
2018-05-12T19:13:09.658Z,53.40
2018-05-12T19:15:36.100Z,53.50
2018-05-12T19:18:02.733Z,53.40
2018-05-12T19:20:29.212Z,53.50
2018-05-12T19:22:55.597Z,53.50
2018-05-12T19:25:22.016Z,53.70
2018-05-12T19:27:49.097Z,53.60
2018-05-12T19:30:16.205Z,54.20
2018-05-12T19:32:42.897Z,53.50
2018-05-12T19:35:09.199Z,53.50
2018-05-12T19:37:35.667Z,53.60
2018-05-12T19:40:02.005Z,53.60
2018-05-12T19:42:28.431Z,53.60
2018-05-12T19:44:54.786Z,53.60
2018-05-12T19:47:21.960Z,53.60
2018-05-12T19:49:49.207Z,53.70
2018-05-12T19:52:16.329Z,53.70
2018-05-12T19:54:42.651Z,53.60
2018-05-12T19:57:08.971Z,53.70
2018-05-12T19:59:35.302Z,53.70
2018-05-12T20:02:01.581Z,53.70
2018-05-12T20:04:28.714Z,53.80
2018-05-12T20:06:55.556Z,53.70
2018-05-12T20:09:22.125Z,53.70
2018-05-12T20:11:48.540Z,53.70
2018-05-12T20:14:15.632Z,53.80
2018-05-12T20:16:43.021Z,53.80
2018-05-12T20:19:09.433Z,53.80
2018-05-12T20:21:35.732Z,53.80
2018-05-12T20:24:02.184Z,53.80
2018-05-12T20:26:28.567Z,53.80
2018-05-12T20:28:55.836Z,53.90
2018-05-12T20:31:22.225Z,53.90
2018-05-12T20:33:48.590Z,53.90
2018-05-12T20:36:14.921Z,53.90
2018-05-12T20:38:41.264Z,53.90
2018-05-12T20:41:07.666Z,53.90
2018-05-12T20:43:35.182Z,53.90
2018-05-12T20:46:04.330Z,53.90
2018-05-12T20:48:33.346Z,54.00
2018-05-12T20:51:00.036Z,54.00
2018-05-12T20:53:26.482Z,54.00
2018-05-12T20:55:52.836Z,54.00
2018-05-12T20:58:19.297Z,54.00
2018-05-12T21:00:45.889Z,54.00
2018-05-12T21:03:12.424Z,54.00
2018-05-12T21:05:38.846Z,54.10
2018-05-12T21:08:05.315Z,54.10
2018-05-12T21:10:31.751Z,54.10
2018-05-12T21:12:58.771Z,54.10
2018-05-12T21:15:25.105Z,54.20
2018-05-12T21:17:51.470Z,54.10
2018-05-12T21:20:17.810Z,54.20
2018-05-12T21:22:44.193Z,54.20
2018-05-12T21:25:10.605Z,54.30
2018-05-12T21:27:37.811Z,54.20
2018-05-12T21:30:05.255Z,54.30
2018-05-12T21:32:31.581Z,54.30
2018-05-12T21:34:58.738Z,54.40
2018-05-12T21:37:25.085Z,54.40
2018-05-12T21:39:51.519Z,54.40
2018-05-12T21:42:18.153Z,54.40
2018-05-12T21:44:45.175Z,54.40
2018-05-12T21:47:12.349Z,54.50
2018-05-12T21:49:38.694Z,54.50
2018-05-12T21:52:05.043Z,54.50
2018-05-12T21:54:31.392Z,54.50
2018-05-12T21:56:57.755Z,54.50
2018-05-12T21:59:24.100Z,54.60
2018-05-12T22:01:50.395Z,54.50
2018-05-12T22:04:16.796Z,54.60
2018-05-12T22:06:43.932Z,54.70
2018-05-12T22:09:10.392Z,54.60
2018-05-12T22:11:36.704Z,54.60
2018-05-12T22:14:03.065Z,54.60
2018-05-12T22:16:29.570Z,54.70
2018-05-12T22:18:55.939Z,54.70
2018-05-12T22:21:22.270Z,54.70
2018-05-12T22:23:49.272Z,54.70
2018-05-12T22:26:16.182Z,55.40
2018-05-12T22:28:43.404Z,54.90
2018-05-12T22:31:09.884Z,54.80
2018-05-12T22:33:37.012Z,54.80
2018-05-12T22:36:04.122Z,54.30
2018-05-12T22:38:30.558Z,54.80
2018-05-12T22:40:56.942Z,54.80
2018-05-12T22:43:24.048Z,54.90
2018-05-12T22:45:51.006Z,54.90
2018-05-12T22:48:17.430Z,54.90
2018-05-12T22:50:43.749Z,54.90
2018-05-12T22:53:10.212Z,54.90
2018-05-12T22:55:37.391Z,55.00
2018-05-12T22:58:04.526Z,55.10
2018-05-12T23:00:30.857Z,55.00
2018-05-12T23:02:57.177Z,55.00
2018-05-12T23:05:24.199Z,55.00
2018-05-12T23:07:50.605Z,55.10
2018-05-12T23:10:17.705Z,55.10
2018-05-12T23:12:44.099Z,55.00
2018-05-12T23:15:11.083Z,55.10
2018-05-12T23:17:37.455Z,55.20
2018-05-12T23:20:03.826Z,55.10
2018-05-12T23:22:30.201Z,55.10
2018-05-12T23:24:56.569Z,55.20
2018-05-12T23:27:22.938Z,55.10
2018-05-12T23:29:49.441Z,55.20
2018-05-12T23:32:15.839Z,55.30
2018-05-12T23:34:42.686Z,55.30
2018-05-12T23:37:08.998Z,55.30
2018-05-12T23:39:35.420Z,55.30
2018-05-12T23:42:01.746Z,55.30
2018-05-12T23:44:28.090Z,55.30
2018-05-12T23:46:54.497Z,55.40
2018-05-12T23:49:25.605Z,55.40
2018-05-12T23:51:53.136Z,55.40
2018-05-12T23:54:20.193Z,55.40
2018-05-12T23:56:46.709Z,55.40
2018-05-12T23:59:13.022Z,55.40
